createdAt,value
2023-04-01T00:01:01.496Z,2.20
2023-04-01T00:03:29.212Z,2.90
2023-04-01T00:05:58.708Z,3.03
2023-04-01T00:08:27.550Z,3.25
2023-04-01T00:10:55.320Z,3.70
2023-04-01T00:13:22.973Z,4.25
2023-04-01T00:15:50.341Z,4.15
2023-04-01T00:18:17.466Z,4.15
2023-04-01T00:20:50.095Z,3.83
2023-04-01T00:23:17.843Z,4.72
2023-04-01T00:25:48.234Z,4.90
2023-04-01T00:28:19.964Z,8.80
2023-04-01T00:30:47.477Z,8.15
2023-04-01T00:33:14.887Z,6.90
2023-04-01T00:35:43.008Z,5.25
2023-04-01T00:38:12.106Z,5.38
2023-04-01T00:40:42.559Z,5.25
2023-04-01T00:43:21.596Z,4.07
2023-04-01T00:45:50.450Z,4.45
2023-04-01T00:48:31.735Z,5.22
2023-04-01T00:51:21.375Z,4.65
2023-04-01T00:53:51.178Z,4.57
2023-04-01T00:56:28.101Z,4.80
2023-04-01T00:59:02.894Z,5.15
2023-04-01T01:01:32.352Z,3.95
2023-04-01T01:03:59.545Z,4.22
2023-04-01T01:06:57.785Z,4.80
2023-04-01T01:09:51.227Z,4.88
2023-04-01T01:12:39.977Z,4.68
2023-04-01T01:15:28.024Z,4.28
2023-04-01T01:18:09.515Z,4.20
2023-04-01T01:20:53.698Z,4.57
2023-04-01T01:23:37.740Z,7.95
2023-04-01T01:26:16.462Z,6.10
2023-04-01T01:28:58.484Z,4.63
2023-04-01T01:31:46.359Z,4.78
2023-04-01T01:35:07.343Z,4.30
2023-04-01T01:37:34.580Z,3.60
2023-04-01T01:40:06.494Z,3.20
2023-04-01T01:42:36.853Z,3.95
2023-04-01T01:45:06.548Z,4.03
2023-04-01T01:47:36.197Z,3.20
2023-04-01T01:50:04.843Z,2.78
2023-04-01T01:52:31.971Z,3.13
2023-04-01T01:54:59.752Z,3.17
2023-04-01T01:57:39.369Z,2.92
2023-04-01T02:00:14.781Z,2.80
2023-04-01T02:02:48.931Z,4.25
2023-04-01T02:05:23.839Z,2.97
2023-04-01T02:08:13.691Z,2.50
2023-04-01T02:10:44.765Z,2.70
2023-04-01T02:13:20.088Z,3.05
2023-04-01T02:15:50.441Z,3.25
2023-04-01T02:18:20.641Z,3.10
2023-04-01T02:20:47.849Z,3.25
2023-04-01T02:23:15.697Z,2.90
2023-04-01T02:25:44.794Z,2.92
2023-04-01T02:28:14.327Z,3.10
2023-04-01T02:30:43.414Z,2.90
2023-04-01T02:33:10.984Z,3.75
2023-04-01T02:35:38.903Z,3.15
2023-04-01T02:38:07.214Z,3.72
2023-04-01T02:40:52.332Z,4.43
2023-04-01T02:43:20.996Z,5.07
2023-04-01T02:45:48.117Z,8.68
2023-04-01T02:48:15.519Z,7.70
2023-04-01T02:50:42.690Z,7.22
2023-04-01T02:53:09.899Z,5.82
2023-04-01T02:55:36.996Z,5.80
2023-04-01T02:58:04.052Z,5.75
2023-04-01T03:00:31.160Z,5.80
2023-04-01T03:02:58.450Z,5.50
2023-04-01T03:05:26.263Z,4.82
2023-04-01T03:07:53.328Z,4.00
2023-04-01T03:10:20.538Z,4.15
2023-04-01T03:12:47.820Z,4.38
2023-04-01T03:15:15.885Z,4.97
2023-04-01T03:17:43.929Z,4.38
2023-04-01T03:20:12.314Z,3.55
2023-04-01T03:22:42.650Z,2.75
2023-04-01T03:25:10.970Z,1.50
2023-04-01T03:27:38.414Z,1.60
2023-04-01T03:30:07.344Z,1.52
2023-04-01T03:32:34.924Z,1.40
2023-04-01T03:35:02.000Z,1.40
2023-04-01T03:37:29.172Z,1.40
2023-04-01T03:39:56.474Z,2.38
2023-04-01T03:42:23.468Z,2.33
2023-04-01T03:44:50.866Z,1.80
2023-04-01T03:47:17.995Z,2.35
2023-04-01T03:49:45.317Z,1.80
2023-04-01T03:52:12.711Z,2.10
2023-04-01T03:54:39.862Z,1.58
2023-04-01T03:57:07.494Z,1.25
2023-04-01T03:59:35.216Z,1.65
2023-04-01T04:02:02.364Z,0.70
2023-04-01T04:04:29.567Z,0.63
2023-04-01T04:06:57.307Z,0.40
2023-04-01T04:09:24.446Z,0.40
2023-04-01T04:11:52.091Z,0.70
2023-04-01T04:14:19.397Z,0.80
2023-04-01T04:16:46.448Z,0.63
2023-04-01T04:19:13.555Z,0.70
2023-04-01T04:21:41.977Z,1.20
2023-04-01T04:24:09.818Z,1.27
2023-04-01T04:26:37.362Z,2.50
2023-04-01T04:29:04.601Z,1.38
2023-04-01T04:31:31.976Z,1.00
2023-04-01T04:34:02.020Z,0.40
2023-04-01T04:36:29.296Z,0.70
2023-04-01T04:38:56.434Z,0.60
2023-04-01T04:41:23.534Z,0.57
2023-04-01T04:43:53.611Z,0.60
2023-04-01T04:46:21.394Z,0.40
2023-04-01T04:48:49.146Z,0.40
2023-04-01T04:51:21.380Z,0.50
2023-04-01T04:53:50.873Z,0.50
2023-04-01T04:56:23.511Z,0.75
2023-04-01T04:58:50.822Z,0.63
2023-04-01T05:01:19.396Z,0.65
2023-04-01T05:03:47.291Z,0.60
2023-04-01T05:06:16.502Z,0.80
2023-04-01T05:08:45.783Z,0.77
2023-04-01T05:11:20.699Z,0.80
2023-04-01T05:13:48.665Z,1.17
2023-04-01T05:16:18.593Z,1.80
2023-04-01T05:18:46.516Z,1.50
2023-04-01T05:21:15.934Z,2.05
2023-04-01T05:23:43.524Z,1.67
2023-04-01T05:26:13.488Z,1.92
2023-04-01T05:28:41.042Z,1.83
2023-04-01T05:31:09.286Z,1.55
2023-04-01T05:33:36.958Z,1.40
2023-04-01T05:36:14.943Z,1.23
2023-04-01T05:38:43.573Z,1.33
2023-04-01T05:41:10.783Z,0.95
2023-04-01T05:43:38.760Z,1.20
2023-04-01T05:46:06.376Z,0.80
2023-04-01T05:48:36.021Z,0.60
2023-04-01T05:51:04.349Z,0.82
2023-04-01T05:53:31.962Z,1.15
2023-04-01T05:56:04.117Z,1.17
2023-04-01T05:58:31.544Z,1.93
2023-04-01T06:01:11.506Z,1.42
2023-04-01T06:03:41.516Z,1.80
2023-04-01T06:06:28.562Z,1.80
2023-04-01T06:08:58.869Z,3.25
2023-04-01T06:11:56.414Z,6.10
2023-04-01T06:14:29.493Z,5.38
2023-04-01T06:20:13.652Z,5.45
2023-04-01T06:22:40.837Z,5.78
2023-04-01T06:25:32.357Z,5.57
2023-04-01T06:28:11.936Z,5.70
2023-04-01T06:30:41.915Z,5.45
2023-04-01T06:33:12.078Z,5.28
2023-04-01T06:36:06.088Z,6.20
2023-04-01T06:39:11.754Z,6.60
2023-04-01T06:42:11.141Z,7.13
2023-04-01T06:44:49.770Z,8.15
2023-04-01T06:47:48.052Z,11.77
2023-04-01T06:50:15.160Z,10.80
2023-04-01T06:53:02.811Z,9.00
2023-04-01T06:55:44.728Z,8.32
2023-04-01T06:58:26.474Z,6.60
2023-04-01T07:01:00.865Z,7.65
2023-04-01T07:03:36.616Z,7.68
2023-04-01T07:06:38.062Z,7.85
2023-04-01T07:09:16.956Z,7.13
2023-04-01T07:11:44.540Z,7.13
2023-04-01T07:14:27.021Z,6.88
2023-04-01T07:17:25.377Z,7.43
2023-04-01T07:19:54.771Z,6.70
2023-04-01T07:22:33.282Z,5.32
2023-04-01T07:25:14.169Z,4.57
2023-04-01T07:27:43.865Z,5.03
2023-04-01T07:30:17.383Z,4.93
2023-04-01T07:33:02.650Z,4.00
2023-04-01T07:35:53.020Z,2.58
2023-04-01T07:38:38.473Z,1.75
2023-04-01T07:41:25.232Z,1.75
2023-04-01T07:44:13.211Z,2.53
2023-04-01T07:47:20.568Z,2.85
2023-04-01T07:49:57.010Z,1.10
2023-04-01T07:52:42.553Z,0.73
2023-04-01T07:55:20.699Z,0.70
2023-04-01T07:58:02.720Z,1.00
2023-04-01T08:00:59.010Z,2.67
2023-04-01T08:03:57.707Z,2.30
2023-04-01T08:07:14.792Z,4.05
2023-04-01T08:10:12.657Z,3.00
2023-04-01T08:12:54.720Z,1.85
2023-04-01T08:15:33.960Z,1.60
2023-04-01T08:18:32.080Z,3.15
2023-04-01T08:21:06.890Z,1.70
2023-04-01T08:23:46.266Z,1.55
2023-04-01T08:26:33.116Z,1.50
2023-04-01T08:29:05.743Z,1.13
2023-04-01T08:31:42.423Z,1.48
2023-04-01T08:34:23.653Z,1.88
2023-04-01T08:37:13.833Z,1.70
2023-04-01T08:39:57.247Z,1.40
2023-04-01T08:42:47.182Z,1.80
2023-04-01T08:45:57.891Z,1.95
2023-04-01T08:48:33.382Z,1.42
2023-04-01T08:51:32.316Z,2.10
2023-04-01T08:54:32.855Z,1.90
2023-04-01T08:57:51.737Z,1.50
2023-04-01T09:00:44.621Z,1.80
2023-04-01T09:03:18.488Z,2.13
2023-04-01T09:05:55.713Z,2.03
2023-04-01T09:08:35.938Z,2.95
2023-04-01T09:11:35.412Z,3.40
2023-04-01T09:14:18.036Z,5.20
2023-04-01T09:17:19.762Z,3.60
2023-04-01T09:20:07.810Z,2.40
2023-04-01T09:22:54.979Z,2.13
2023-04-01T09:25:24.855Z,4.25
2023-04-01T09:27:55.117Z,3.75
2023-04-01T09:30:45.745Z,1.65
2023-04-01T09:33:44.779Z,1.60
2023-04-01T09:36:15.780Z,1.90
2023-04-01T09:39:25.315Z,1.33
2023-04-01T09:42:04.069Z,1.20
2023-04-01T09:44:45.328Z,0.82
2023-04-01T09:48:05.122Z,0.70
2023-04-01T09:51:07.893Z,0.60
2023-04-01T09:53:57.776Z,0.70
2023-04-01T09:56:57.090Z,0.50
2023-04-01T09:59:35.298Z,0.90
2023-04-01T10:02:38.169Z,0.60
2023-04-01T10:05:37.678Z,0.80
2023-04-01T10:08:43.083Z,0.60
2023-04-01T10:11:19.529Z,0.80
2023-04-01T10:14:06.199Z,0.82
2023-04-01T10:16:39.484Z,0.60
2023-04-01T10:19:24.702Z,0.60
2023-04-01T10:22:20.398Z,0.40
2023-04-01T10:25:24.845Z,0.30
2023-04-01T10:27:58.236Z,0.40
2023-04-01T10:30:34.424Z,0.57
2023-04-01T10:33:21.823Z,0.50
2023-04-01T10:36:22.794Z,0.60
2023-04-01T10:39:08.057Z,0.32
2023-04-01T10:42:12.764Z,0.50
2023-04-01T10:44:53.845Z,0.63
2023-04-01T10:47:21.383Z,0.50
2023-04-01T10:50:27.082Z,0.40
2023-04-01T10:53:12.240Z,0.40
2023-04-01T10:56:15.965Z,0.40
2023-04-01T10:59:05.002Z,0.95
2023-04-01T11:01:44.193Z,0.63
2023-04-01T11:04:20.040Z,0.30
2023-04-01T11:07:08.314Z,0.45
2023-04-01T11:09:53.497Z,0.50
2023-04-01T11:13:14.404Z,0.30
2023-04-01T11:16:27.577Z,0.63
2023-04-01T11:19:25.625Z,0.35
2023-04-01T11:22:16.660Z,0.75
2023-04-01T11:24:58.721Z,0.73
2023-04-01T11:27:59.474Z,0.50
2023-04-01T11:30:45.597Z,0.50
2023-04-01T11:33:36.224Z,0.55
2023-04-01T11:36:07.942Z,0.70
2023-04-01T11:38:39.876Z,0.60
2023-04-01T11:41:26.529Z,0.50
2023-04-01T11:43:53.473Z,0.63
2023-04-01T11:46:58.025Z,0.38
2023-04-01T11:49:43.038Z,0.30
2023-04-01T11:52:28.919Z,0.17
2023-04-01T11:55:35.851Z,0.40
2023-04-01T11:58:23.969Z,0.38
2023-04-01T12:00:53.774Z,0.40
2023-04-01T12:03:48.714Z,0.20
2023-04-01T12:06:39.513Z,0.30
2023-04-01T12:09:22.625Z,0.40
2023-04-01T12:14:45.400Z,0.32
2023-04-01T12:17:27.708Z,0.40
2023-04-01T12:20:13.045Z,0.32
2023-04-01T12:22:42.880Z,0.50
2023-04-01T12:25:40.279Z,0.20
2023-04-01T12:28:19.566Z,0.50
2023-04-01T12:31:19.853Z,0.55
2023-04-01T12:34:14.295Z,0.77
2023-04-01T12:37:14.166Z,0.50
2023-04-01T12:40:11.782Z,0.40
2023-04-01T12:42:48.756Z,0.35
2023-04-01T12:45:32.903Z,0.90
2023-04-01T12:48:29.057Z,1.02
2023-04-01T12:51:05.012Z,0.50
2023-04-01T12:53:50.890Z,0.47
2023-04-01T12:56:33.295Z,0.50
2023-04-01T12:59:31.236Z,0.57
2023-04-01T13:02:01.387Z,0.80
2023-04-01T13:05:00.706Z,0.77
2023-04-01T13:07:30.563Z,0.98
2023-04-01T13:10:04.070Z,0.80
2023-04-01T13:12:37.509Z,0.40
2023-04-01T13:15:07.608Z,0.55
2023-04-01T13:18:03.848Z,0.60
2023-04-01T13:20:40.203Z,0.68
2023-04-01T13:23:45.959Z,1.10
2023-04-01T13:26:34.338Z,1.00
2023-04-01T13:29:21.490Z,0.80
2023-04-01T13:32:06.507Z,1.38
2023-04-01T13:34:53.890Z,0.90
2023-04-01T13:37:49.023Z,0.80
2023-04-01T13:40:16.421Z,2.25
2023-04-01T13:43:01.187Z,1.38
2023-04-01T13:45:50.489Z,1.23
2023-04-01T13:48:32.412Z,1.58
2023-04-01T13:51:39.289Z,1.30
2023-04-01T13:54:21.604Z,1.00
2023-04-01T13:56:57.778Z,0.88
2023-04-01T13:59:47.804Z,1.40
2023-04-01T14:02:33.530Z,0.60
2023-04-01T14:05:22.461Z,0.70
2023-04-01T14:08:47.757Z,1.08
2023-04-01T14:11:45.154Z,0.57
2023-04-01T14:14:33.050Z,0.70
2023-04-01T14:17:33.591Z,1.20
2023-04-01T14:20:24.916Z,0.60
2023-04-01T14:23:13.827Z,0.80
2023-04-01T14:25:57.752Z,0.65
2023-04-01T14:28:25.152Z,1.02
2023-04-01T14:31:10.520Z,0.63
2023-04-01T14:34:05.626Z,0.50
2023-04-01T14:37:06.640Z,0.50
2023-04-01T14:40:11.011Z,0.95
2023-04-01T14:43:02.561Z,1.08
2023-04-01T14:45:48.229Z,1.60
2023-04-01T14:48:34.514Z,1.65
2023-04-01T14:51:46.428Z,0.82
2023-04-01T14:54:23.601Z,1.67
2023-04-01T14:57:02.541Z,1.60
2023-04-01T14:59:30.723Z,1.08
2023-04-01T15:02:04.833Z,1.00
2023-04-01T15:04:58.318Z,1.23
2023-04-01T15:07:25.619Z,1.20
2023-04-01T15:10:20.992Z,1.40
2023-04-01T15:13:29.644Z,0.65
2023-04-01T15:16:15.061Z,0.63
2023-04-01T15:19:02.983Z,1.35
2023-04-01T15:22:00.886Z,1.40
2023-04-01T15:25:09.002Z,1.48
2023-04-01T15:28:02.076Z,0.82
2023-04-01T15:33:26.624Z,1.45
2023-04-01T15:36:21.567Z,1.90
2023-04-01T15:39:01.255Z,1.00
2023-04-01T15:41:36.333Z,1.80
2023-04-01T15:44:04.699Z,1.92
2023-04-01T15:46:48.970Z,1.52
2023-04-01T15:49:34.408Z,1.73
2023-04-01T15:52:23.620Z,1.00
2023-04-01T15:55:09.287Z,1.88
2023-04-01T15:57:47.040Z,1.70
2023-04-01T16:00:27.860Z,1.30
2023-04-01T16:03:11.956Z,1.80
2023-04-01T16:05:53.259Z,1.90
2023-04-01T16:08:54.304Z,2.05
2023-04-01T16:14:18.159Z,2.25
2023-04-01T16:17:04.149Z,2.53
2023-04-01T16:20:03.228Z,2.45
2023-04-01T16:22:58.062Z,4.40
2023-04-01T16:25:37.403Z,6.18
2023-04-01T16:28:17.105Z,6.95
2023-04-01T16:31:15.943Z,1.90
2023-04-01T16:34:20.845Z,0.45
2023-04-01T16:37:05.205Z,1.55
2023-04-01T16:39:41.990Z,0.70
2023-04-01T16:42:19.999Z,1.10
2023-04-01T16:44:49.957Z,1.25
2023-04-01T16:47:43.620Z,4.63
2023-04-01T16:50:32.792Z,5.32
2023-04-01T16:53:17.076Z,7.60
2023-04-01T16:55:55.830Z,16.83
2023-04-01T16:58:42.594Z,18.00
2023-04-01T17:01:31.003Z,15.00
2023-04-01T17:04:26.921Z,43.33
2023-04-01T17:07:20.983Z,9.15
2023-04-01T17:10:09.420Z,5.25
2023-04-01T17:13:12.513Z,61.92
2023-04-01T17:16:08.519Z,23.13
2023-04-01T17:18:41.922Z,25.83
2023-04-01T17:21:44.621Z,4.55
2023-04-01T17:24:23.410Z,10.30
2023-04-01T17:27:35.079Z,5.40
2023-04-01T17:30:11.682Z,4.43
2023-04-01T17:33:06.761Z,1.98
2023-04-01T17:35:44.216Z,3.58
2023-04-01T17:38:42.027Z,6.10
2023-04-01T17:41:36.896Z,4.60
2023-04-01T17:44:49.273Z,3.10
2023-04-01T17:47:34.658Z,2.63
2023-04-01T17:50:20.135Z,3.15
2023-04-01T17:52:54.488Z,7.35
2023-04-01T17:55:41.739Z,8.85
2023-04-01T17:58:14.847Z,9.25
2023-04-01T18:01:00.815Z,4.65
2023-04-01T18:03:55.230Z,2.45
2023-04-01T18:07:01.223Z,1.38
2023-04-01T18:09:49.774Z,1.13
2023-04-01T18:12:57.369Z,0.90
2023-04-01T18:15:57.993Z,1.13
2023-04-01T18:18:56.511Z,1.30
2023-04-01T18:21:47.464Z,3.10
2023-04-01T18:24:14.556Z,2.25
2023-04-01T18:27:06.721Z,2.80
2023-04-01T18:29:52.520Z,2.60
2023-04-01T18:32:38.468Z,1.70
2023-04-01T18:35:42.879Z,1.63
2023-04-01T18:38:16.408Z,1.50
2023-04-01T18:41:14.330Z,1.65
2023-04-01T18:44:29.350Z,2.78
2023-04-01T18:47:28.280Z,3.20
2023-04-01T18:50:27.783Z,1.63
2023-04-01T18:53:15.261Z,2.03
2023-04-01T18:55:50.599Z,2.72
2023-04-01T18:58:33.371Z,2.60
2023-04-01T19:01:10.047Z,3.60
2023-04-01T19:04:00.276Z,3.00
2023-04-01T19:06:42.325Z,2.50
2023-04-01T19:09:29.156Z,2.75
2023-04-01T19:12:14.339Z,3.15
2023-04-01T19:14:54.754Z,2.88
2023-04-01T19:17:34.741Z,2.63
2023-04-01T19:20:30.809Z,3.50
2023-04-01T19:23:17.310Z,6.68
2023-04-01T19:25:56.579Z,8.52
2023-04-01T19:28:42.410Z,3.65
2023-04-01T19:31:12.516Z,4.15
2023-04-01T19:33:52.302Z,4.65
2023-04-01T19:36:38.120Z,5.13
2023-04-01T19:39:49.293Z,4.65
2023-04-01T19:42:41.398Z,4.75
2023-04-01T19:45:26.396Z,5.10
2023-04-01T19:48:17.630Z,4.38
2023-04-01T19:51:04.356Z,4.70
2023-04-01T19:53:55.477Z,4.55
2023-04-01T19:56:24.962Z,5.18
2023-04-01T19:59:04.068Z,5.05
2023-04-01T20:02:06.721Z,4.95
2023-04-01T20:04:48.975Z,4.72
2023-04-01T20:07:31.932Z,4.83
2023-04-01T20:10:40.895Z,4.57
2023-04-01T20:13:23.255Z,5.15
2023-04-01T20:16:05.165Z,4.73
2023-04-01T20:18:46.727Z,5.15
2023-04-01T20:21:30.467Z,5.88
2023-04-01T20:24:03.111Z,6.45
2023-04-01T20:26:40.924Z,6.55
2023-04-01T20:29:23.246Z,7.63
2023-04-01T20:32:10.783Z,8.07
2023-04-01T20:35:05.376Z,10.60
2023-04-01T20:37:56.473Z,13.88
2023-04-01T20:40:48.073Z,4.70
2023-04-01T20:43:36.934Z,5.45
2023-04-01T20:46:27.638Z,5.60
2023-04-01T20:49:22.519Z,4.65
2023-04-01T20:52:01.900Z,5.18
2023-04-01T20:54:42.532Z,5.35
2023-04-01T20:57:44.481Z,5.40
2023-04-01T21:00:48.807Z,5.18
2023-04-01T21:03:27.993Z,6.28
2023-04-01T21:06:07.776Z,5.45
2023-04-01T21:08:49.544Z,5.22
2023-04-01T21:11:21.919Z,5.22
2023-04-01T21:13:59.486Z,5.30
2023-04-01T21:16:30.420Z,6.38
2023-04-01T21:19:26.760Z,6.45
2023-04-01T21:22:18.204Z,6.22
2023-04-01T21:25:12.927Z,7.38
2023-04-01T21:28:27.693Z,8.10
2023-04-01T21:31:01.827Z,7.63
2023-04-01T21:33:37.930Z,8.32
2023-04-01T21:36:23.639Z,9.70
2023-04-01T21:39:27.306Z,14.45
2023-04-01T21:42:12.966Z,13.40
2023-04-01T21:44:54.904Z,16.23
2023-04-01T21:47:24.841Z,18.23
2023-04-01T21:50:30.336Z,19.00
2023-04-01T21:53:08.215Z,18.95
2023-04-01T21:56:10.233Z,18.52
2023-04-01T21:59:14.624Z,19.30
2023-04-01T22:02:00.478Z,19.63
2023-04-01T22:04:52.562Z,18.42
2023-04-01T22:07:22.494Z,22.98
2023-04-01T22:10:25.974Z,25.25
2023-04-01T22:13:09.357Z,23.58
2023-04-01T22:19:02.259Z,24.20
2023-04-01T22:22:03.856Z,20.38
2023-04-01T22:25:01.913Z,21.60
2023-04-01T22:28:10.123Z,21.40
2023-04-01T22:30:52.312Z,22.65
2023-04-01T22:33:30.907Z,23.90
2023-04-01T22:36:15.050Z,23.23
2023-04-01T22:39:17.920Z,30.10
2023-04-01T22:42:28.911Z,27.55
2023-04-01T22:45:22.838Z,26.98
2023-04-01T22:50:36.481Z,25.60
2023-04-01T22:53:25.103Z,27.42
2023-04-01T22:56:00.828Z,25.63
2023-04-01T22:59:00.506Z,26.20
2023-04-01T23:01:41.489Z,27.23
2023-04-01T23:04:20.673Z,27.45
2023-04-01T23:06:59.034Z,28.08
2023-04-01T23:09:37.576Z,28.98
2023-04-01T23:12:16.953Z,27.90
2023-04-01T23:14:50.169Z,26.50
2023-04-01T23:20:29.851Z,26.15
2023-04-01T23:23:33.678Z,27.02
2023-04-01T23:26:24.355Z,27.77
2023-04-01T23:29:02.987Z,27.92
2023-04-01T23:31:43.998Z,28.83
2023-04-01T23:34:25.552Z,26.65
2023-04-01T23:37:16.336Z,26.08
2023-04-01T23:39:50.492Z,26.35
2023-04-01T23:42:25.894Z,27.10
2023-04-01T23:45:08.576Z,25.92
2023-04-01T23:47:45.265Z,24.38
2023-04-01T23:50:26.151Z,24.35
2023-04-01T23:53:24.561Z,22.75
2023-04-01T23:55:58.664Z,24.83
2023-04-01T23:58:59.087Z,24.38
